sensor_id;sensor_type;location;lat;lon;timestamp;P1;durP1;ratioP1;P2;durP2;ratioP2
5912;SDS011;2982;42.684;23.356;2023-05-09T00:01:57;3.30;;;3.10;;
5912;SDS011;2982;42.684;23.356;2023-05-09T00:04:23;2.83;;;2.72;;
5912;SDS011;2982;42.684;23.356;2023-05-09T00:06:49;4.20;;;3.80;;
5912;SDS011;2982;42.684;23.356;2023-05-09T00:09:14;3.25;;;2.95;;
5912;SDS011;2982;42.684;23.356;2023-05-09T00:11:39;2.80;;;2.70;;
5912;SDS011;2982;42.684;23.356;2023-05-09T00:14:05;3.00;;;2.80;;
5912;SDS011;2982;42.684;23.356;2023-05-09T00:16:31;3.35;;;3.15;;
5912;SDS011;2982;42.684;23.356;2023-05-09T00:18:56;3.15;;;2.95;;
5912;SDS011;2982;42.684;23.356;2023-05-09T00:21:21;2.72;;;2.63;;
5912;SDS011;2982;42.684;23.356;2023-05-09T00:23:47;3.97;;;3.60;;
5912;SDS011;2982;42.684;23.356;2023-05-09T00:26:12;3.42;;;3.13;;
5912;SDS011;2982;42.684;23.356;2023-05-09T00:28:37;3.40;;;3.20;;
5912;SDS011;2982;42.684;23.356;2023-05-09T00:31:02;2.75;;;2.55;;
5912;SDS011;2982;42.684;23.356;2023-05-09T00:33:28;3.47;;;3.28;;
5912;SDS011;2982;42.684;23.356;2023-05-09T00:35:53;2.90;;;2.70;;
5912;SDS011;2982;42.684;23.356;2023-05-09T00:38:18;3.00;;;2.80;;
5912;SDS011;2982;42.684;23.356;2023-05-09T00:40:44;3.28;;;3.08;;
5912;SDS011;2982;42.684;23.356;2023-05-09T00:43:09;3.83;;;3.55;;
5912;SDS011;2982;42.684;23.356;2023-05-09T00:45:34;3.70;;;3.50;;
5912;SDS011;2982;42.684;23.356;2023-05-09T00:48:00;4.18;;;3.97;;
5912;SDS011;2982;42.684;23.356;2023-05-09T00:50:25;4.22;;;3.92;;
5912;SDS011;2982;42.684;23.356;2023-05-09T00:52:50;3.97;;;3.67;;
5912;SDS011;2982;42.684;23.356;2023-05-09T00:55:16;4.30;;;3.90;;
5912;SDS011;2982;42.684;23.356;2023-05-09T00:57:43;3.70;;;3.50;;
5912;SDS011;2982;42.684;23.356;2023-05-09T01:00:09;2.80;;;2.60;;
5912;SDS011;2982;42.684;23.356;2023-05-09T01:02:35;4.40;;;4.00;;
5912;SDS011;2982;42.684;23.356;2023-05-09T01:05:00;4.40;;;4.10;;
5912;SDS011;2982;42.684;23.356;2023-05-09T01:15:14;4.00;;;3.80;;
5912;SDS011;2982;42.684;23.356;2023-05-09T01:18:05;3.80;;;3.60;;
5912;SDS011;2982;42.684;23.356;2023-05-09T01:20:42;3.80;;;3.55;;
5912;SDS011;2982;42.684;23.356;2023-05-09T01:32:04;4.00;;;3.80;;
5912;SDS011;2982;42.684;23.356;2023-05-09T01:34:33;4.10;;;3.80;;
5912;SDS011;2982;42.684;23.356;2023-05-09T01:37:00;4.85;;;3.72;;
5912;SDS011;2982;42.684;23.356;2023-05-09T01:39:29;3.70;;;3.50;;
5912;SDS011;2982;42.684;23.356;2023-05-09T01:41:59;3.78;;;3.58;;
5912;SDS011;2982;42.684;23.356;2023-05-09T01:44:26;3.55;;;3.35;;
5912;SDS011;2982;42.684;23.356;2023-05-09T01:46:57;3.75;;;3.55;;
5912;SDS011;2982;42.684;23.356;2023-05-09T01:49:24;3.83;;;3.63;;
5912;SDS011;2982;42.684;23.356;2023-05-09T01:51:52;3.92;;;3.72;;
5912;SDS011;2982;42.684;23.356;2023-05-09T01:54:19;2.88;;;2.72;;
5912;SDS011;2982;42.684;23.356;2023-05-09T01:56:47;4.10;;;3.85;;
5912;SDS011;2982;42.684;23.356;2023-05-09T01:59:13;3.95;;;3.65;;
5912;SDS011;2982;42.684;23.356;2023-05-09T02:01:40;3.92;;;3.60;;
5912;SDS011;2982;42.684;23.356;2023-05-09T02:04:07;3.85;;;3.65;;
5912;SDS011;2982;42.684;23.356;2023-05-09T02:06:32;4.40;;;4.10;;
5912;SDS011;2982;42.684;23.356;2023-05-09T02:09:00;3.83;;;3.53;;
5912;SDS011;2982;42.684;23.356;2023-05-09T02:11:26;3.40;;;3.20;;
5912;SDS011;2982;42.684;23.356;2023-05-09T02:13:51;4.25;;;4.05;;
5912;SDS011;2982;42.684;23.356;2023-05-09T02:16:16;4.30;;;4.00;;
5912;SDS011;2982;42.684;23.356;2023-05-09T02:18:42;3.58;;;3.38;;
5912;SDS011;2982;42.684;23.356;2023-05-09T02:21:07;4.00;;;3.75;;
5912;SDS011;2982;42.684;23.356;2023-05-09T02:23:32;3.97;;;3.78;;
5912;SDS011;2982;42.684;23.356;2023-05-09T02:25:59;4.93;;;4.47;;
5912;SDS011;2982;42.684;23.356;2023-05-09T02:28:25;3.47;;;3.28;;
5912;SDS011;2982;42.684;23.356;2023-05-09T02:30:52;4.30;;;4.00;;
5912;SDS011;2982;42.684;23.356;2023-05-09T02:33:20;3.38;;;3.15;;
5912;SDS011;2982;42.684;23.356;2023-05-09T02:35:47;3.95;;;3.40;;
5912;SDS011;2982;42.684;23.356;2023-05-09T02:38:13;3.65;;;3.30;;
5912;SDS011;2982;42.684;23.356;2023-05-09T02:40:40;3.78;;;3.58;;
5912;SDS011;2982;42.684;23.356;2023-05-09T02:43:06;3.95;;;3.65;;
5912;SDS011;2982;42.684;23.356;2023-05-09T02:45:31;3.83;;;3.63;;
5912;SDS011;2982;42.684;23.356;2023-05-09T02:47:57;10.95;;;5.45;;
5912;SDS011;2982;42.684;23.356;2023-05-09T02:50:22;5.65;;;4.15;;
5912;SDS011;2982;42.684;23.356;2023-05-09T02:52:47;4.70;;;4.28;;
5912;SDS011;2982;42.684;23.356;2023-05-09T02:55:13;4.68;;;4.28;;
5912;SDS011;2982;42.684;23.356;2023-05-09T02:57:38;4.40;;;4.10;;
5912;SDS011;2982;42.684;23.356;2023-05-09T03:00:03;4.65;;;4.35;;
5912;SDS011;2982;42.684;23.356;2023-05-09T03:02:29;5.18;;;4.10;;
5912;SDS011;2982;42.684;23.356;2023-05-09T03:04:54;5.18;;;4.53;;
5912;SDS011;2982;42.684;23.356;2023-05-09T03:07:20;4.30;;;4.05;;
5912;SDS011;2982;42.684;23.356;2023-05-09T03:09:45;5.70;;;4.60;;
5912;SDS011;2982;42.684;23.356;2023-05-09T03:12:10;5.78;;;4.43;;
5912;SDS011;2982;42.684;23.356;2023-05-09T03:14:35;5.35;;;4.75;;
5912;SDS011;2982;42.684;23.356;2023-05-09T03:17:01;4.43;;;4.05;;
5912;SDS011;2982;42.684;23.356;2023-05-09T03:19:26;4.70;;;4.40;;
5912;SDS011;2982;42.684;23.356;2023-05-09T03:21:51;5.45;;;5.15;;
5912;SDS011;2982;42.684;23.356;2023-05-09T03:24:16;5.72;;;4.57;;
5912;SDS011;2982;42.684;23.356;2023-05-09T03:26:42;5.28;;;4.97;;
5912;SDS011;2982;42.684;23.356;2023-05-09T03:29:07;5.30;;;4.90;;
5912;SDS011;2982;42.684;23.356;2023-05-09T03:31:32;5.50;;;4.55;;
5912;SDS011;2982;42.684;23.356;2023-05-09T03:33:58;5.20;;;4.80;;
5912;SDS011;2982;42.684;23.356;2023-05-09T03:36:23;5.95;;;5.45;;
5912;SDS011;2982;42.684;23.356;2023-05-09T03:38:48;5.22;;;4.82;;
5912;SDS011;2982;42.684;23.356;2023-05-09T03:41:15;5.63;;;5.13;;
5912;SDS011;2982;42.684;23.356;2023-05-09T03:43:41;5.32;;;5.03;;
5912;SDS011;2982;42.684;23.356;2023-05-09T03:46:06;5.45;;;5.03;;
5912;SDS011;2982;42.684;23.356;2023-05-09T03:48:31;6.18;;;5.78;;
5912;SDS011;2982;42.684;23.356;2023-05-09T03:50:57;5.03;;;4.72;;
5912;SDS011;2982;42.684;23.356;2023-05-09T03:53:22;5.78;;;5.25;;
5912;SDS011;2982;42.684;23.356;2023-05-09T03:55:47;4.93;;;4.53;;
5912;SDS011;2982;42.684;23.356;2023-05-09T03:58:13;8.02;;;5.28;;
5912;SDS011;2982;42.684;23.356;2023-05-09T04:00:39;5.53;;;5.00;;
5912;SDS011;2982;42.684;23.356;2023-05-09T04:03:05;5.03;;;4.70;;
5912;SDS011;2982;42.684;23.356;2023-05-09T04:05:30;5.15;;;4.75;;
5912;SDS011;2982;42.684;23.356;2023-05-09T04:07:56;5.22;;;4.90;;
5912;SDS011;2982;42.684;23.356;2023-05-09T04:10:21;5.10;;;4.80;;
5912;SDS011;2982;42.684;23.356;2023-05-09T04:12:47;4.50;;;4.20;;
5912;SDS011;2982;42.684;23.356;2023-05-09T04:15:12;4.70;;;4.30;;
5912;SDS011;2982;42.684;23.356;2023-05-09T04:17:37;5.18;;;4.70;;
5912;SDS011;2982;42.684;23.356;2023-05-09T04:20:02;9.27;;;4.50;;
5912;SDS011;2982;42.684;23.356;2023-05-09T04:22:28;4.55;;;4.25;;
5912;SDS011;2982;42.684;23.356;2023-05-09T04:24:53;4.85;;;4.55;;
5912;SDS011;2982;42.684;23.356;2023-05-09T04:27:19;9.00;;;5.60;;
5912;SDS011;2982;42.684;23.356;2023-05-09T04:29:44;5.00;;;4.65;;
5912;SDS011;2982;42.684;23.356;2023-05-09T04:32:09;3.75;;;3.45;;
5912;SDS011;2982;42.684;23.356;2023-05-09T04:34:34;4.63;;;4.18;;
5912;SDS011;2982;42.684;23.356;2023-05-09T04:37:00;4.43;;;3.67;;
5912;SDS011;2982;42.684;23.356;2023-05-09T04:39:25;3.95;;;3.40;;
5912;SDS011;2982;42.684;23.356;2023-05-09T04:41:50;4.43;;;4.13;;
5912;SDS011;2982;42.684;23.356;2023-05-09T04:44:16;4.13;;;3.80;;
5912;SDS011;2982;42.684;23.356;2023-05-09T04:46:41;4.25;;;3.65;;
5912;SDS011;2982;42.684;23.356;2023-05-09T04:49:07;3.40;;;3.20;;
5912;SDS011;2982;42.684;23.356;2023-05-09T04:51:32;3.70;;;3.38;;
5912;SDS011;2982;42.684;23.356;2023-05-09T04:53:57;2.70;;;2.60;;
5912;SDS011;2982;42.684;23.356;2023-05-09T04:56:23;3.00;;;2.60;;
5912;SDS011;2982;42.684;23.356;2023-05-09T04:58:48;2.28;;;2.05;;
5912;SDS011;2982;42.684;23.356;2023-05-09T05:01:14;1.52;;;1.42;;
5912;SDS011;2982;42.684;23.356;2023-05-09T05:03:39;2.75;;;2.00;;
5912;SDS011;2982;42.684;23.356;2023-05-09T05:06:04;1.73;;;1.63;;
5912;SDS011;2982;42.684;23.356;2023-05-09T05:08:30;2.13;;;2.03;;
5912;SDS011;2982;42.684;23.356;2023-05-09T05:10:55;3.00;;;1.70;;
5912;SDS011;2982;42.684;23.356;2023-05-09T05:13:20;3.05;;;2.00;;
5912;SDS011;2982;42.684;23.356;2023-05-09T05:15:46;3.67;;;2.08;;
5912;SDS011;2982;42.684;23.356;2023-05-09T05:18:11;2.00;;;1.90;;
5912;SDS011;2982;42.684;23.356;2023-05-09T05:20:38;1.40;;;1.40;;
5912;SDS011;2982;42.684;23.356;2023-05-09T05:23:04;2.97;;;1.67;;
5912;SDS011;2982;42.684;23.356;2023-05-09T05:25:29;2.10;;;1.90;;
5912;SDS011;2982;42.684;23.356;2023-05-09T05:27:54;2.20;;;2.10;;
5912;SDS011;2982;42.684;23.356;2023-05-09T05:30:20;2.88;;;1.20;;
5912;SDS011;2982;42.684;23.356;2023-05-09T05:32:45;1.30;;;1.20;;
5912;SDS011;2982;42.684;23.356;2023-05-09T05:35:11;3.15;;;1.10;;
5912;SDS011;2982;42.684;23.356;2023-05-09T05:37:36;1.52;;;1.40;;
5912;SDS011;2982;42.684;23.356;2023-05-09T05:40:02;1.17;;;1.15;;
5912;SDS011;2982;42.684;23.356;2023-05-09T05:42:28;2.20;;;1.13;;
5912;SDS011;2982;42.684;23.356;2023-05-09T05:44:53;1.33;;;1.10;;
5912;SDS011;2982;42.684;23.356;2023-05-09T05:47:19;9.50;;;0.90;;
5912;SDS011;2982;42.684;23.356;2023-05-09T05:49:44;2.38;;;1.48;;
5912;SDS011;2982;42.684;23.356;2023-05-09T05:52:09;2.40;;;1.33;;
5912;SDS011;2982;42.684;23.356;2023-05-09T05:54:34;1.52;;;1.40;;
5912;SDS011;2982;42.684;23.356;2023-05-09T05:57:00;1.30;;;1.20;;
5912;SDS011;2982;42.684;23.356;2023-05-09T05:59:25;3.10;;;1.60;;
5912;SDS011;2982;42.684;23.356;2023-05-09T06:01:50;3.72;;;2.08;;
5912;SDS011;2982;42.684;23.356;2023-05-09T06:04:15;1.50;;;1.40;;
5912;SDS011;2982;42.684;23.356;2023-05-09T06:06:41;2.42;;;1.35;;
5912;SDS011;2982;42.684;23.356;2023-05-09T06:09:06;2.72;;;1.75;;
5912;SDS011;2982;42.684;23.356;2023-05-09T06:11:31;2.55;;;1.95;;
5912;SDS011;2982;42.684;23.356;2023-05-09T06:13:57;1.92;;;1.73;;
5912;SDS011;2982;42.684;23.356;2023-05-09T06:16:22;1.42;;;1.33;;
5912;SDS011;2982;42.684;23.356;2023-05-09T06:18:47;2.38;;;1.48;;
5912;SDS011;2982;42.684;23.356;2023-05-09T06:21:13;1.75;;;0.98;;
5912;SDS011;2982;42.684;23.356;2023-05-09T06:23:38;2.30;;;0.70;;
5912;SDS011;2982;42.684;23.356;2023-05-09T06:26:03;1.20;;;1.10;;
5912;SDS011;2982;42.684;23.356;2023-05-09T06:28:29;0.50;;;0.50;;
5912;SDS011;2982;42.684;23.356;2023-05-09T06:30:54;2.83;;;0.57;;
5912;SDS011;2982;42.684;23.356;2023-05-09T06:33:19;0.85;;;0.73;;
5912;SDS011;2982;42.684;23.356;2023-05-09T06:35:45;1.20;;;0.52;;
5912;SDS011;2982;42.684;23.356;2023-05-09T06:38:10;0.75;;;0.57;;
5912;SDS011;2982;42.684;23.356;2023-05-09T06:40:35;2.83;;;1.00;;
5912;SDS011;2982;42.684;23.356;2023-05-09T06:43:00;2.65;;;0.77;;
5912;SDS011;2982;42.684;23.356;2023-05-09T06:45:26;1.02;;;0.80;;
5912;SDS011;2982;42.684;23.356;2023-05-09T06:47:51;0.55;;;0.55;;
5912;SDS011;2982;42.684;23.356;2023-05-09T06:50:16;0.88;;;0.80;;
5912;SDS011;2982;42.684;23.356;2023-05-09T06:52:42;1.45;;;0.77;;
5912;SDS011;2982;42.684;23.356;2023-05-09T06:55:07;4.32;;;0.80;;
5912;SDS011;2982;42.684;23.356;2023-05-09T06:57:33;2.45;;;0.85;;
5912;SDS011;2982;42.684;23.356;2023-05-09T06:59:58;1.05;;;0.95;;
5912;SDS011;2982;42.684;23.356;2023-05-09T07:02:24;0.80;;;0.80;;
5912;SDS011;2982;42.684;23.356;2023-05-09T07:04:49;5.18;;;1.58;;
5912;SDS011;2982;42.684;23.356;2023-05-09T07:07:14;2.53;;;2.22;;
5912;SDS011;2982;42.684;23.356;2023-05-09T07:09:39;1.40;;;1.30;;
5912;SDS011;2982;42.684;23.356;2023-05-09T07:12:05;1.33;;;1.23;;
5912;SDS011;2982;42.684;23.356;2023-05-09T07:14:30;1.00;;;1.00;;
5912;SDS011;2982;42.684;23.356;2023-05-09T07:16:55;1.15;;;1.05;;
5912;SDS011;2982;42.684;23.356;2023-05-09T07:19:21;5.07;;;1.05;;
5912;SDS011;2982;42.684;23.356;2023-05-09T07:21:46;2.75;;;1.42;;
5912;SDS011;2982;42.684;23.356;2023-05-09T07:24:11;1.27;;;1.10;;
5912;SDS011;2982;42.684;23.356;2023-05-09T07:26:36;1.27;;;0.80;;
5912;SDS011;2982;42.684;23.356;2023-05-09T07:29:02;0.80;;;0.80;;
5912;SDS011;2982;42.684;23.356;2023-05-09T07:31:27;1.52;;;0.65;;
5912;SDS011;2982;42.684;23.356;2023-05-09T07:33:53;0.80;;;0.68;;
5912;SDS011;2982;42.684;23.356;2023-05-09T07:36:18;0.82;;;0.73;;
5912;SDS011;2982;42.684;23.356;2023-05-09T07:38:43;1.13;;;1.02;;
5912;SDS011;2982;42.684;23.356;2023-05-09T07:41:08;2.70;;;0.80;;
5912;SDS011;2982;42.684;23.356;2023-05-09T07:43:34;1.65;;;0.90;;
5912;SDS011;2982;42.684;23.356;2023-05-09T07:45:59;0.60;;;0.60;;
5912;SDS011;2982;42.684;23.356;2023-05-09T07:48:24;0.55;;;0.50;;
5912;SDS011;2982;42.684;23.356;2023-05-09T07:50:50;0.98;;;0.88;;
5912;SDS011;2982;42.684;23.356;2023-05-09T07:53:15;1.95;;;0.70;;
5912;SDS011;2982;42.684;23.356;2023-05-09T07:55:40;0.82;;;0.82;;
5912;SDS011;2982;42.684;23.356;2023-05-09T07:58:05;1.52;;;1.38;;
5912;SDS011;2982;42.684;23.356;2023-05-09T08:00:31;1.35;;;1.25;;
5912;SDS011;2982;42.684;23.356;2023-05-09T08:02:56;0.80;;;0.80;;
5912;SDS011;2982;42.684;23.356;2023-05-09T08:05:21;0.70;;;0.70;;
5912;SDS011;2982;42.684;23.356;2023-05-09T08:07:46;0.80;;;0.80;;
5912;SDS011;2982;42.684;23.356;2023-05-09T08:10:12;0.93;;;0.93;;
5912;SDS011;2982;42.684;23.356;2023-05-09T08:12:37;1.58;;;0.95;;
5912;SDS011;2982;42.684;23.356;2023-05-09T08:15:03;1.58;;;1.27;;
5912;SDS011;2982;42.684;23.356;2023-05-09T08:17:29;0.73;;;0.73;;
5912;SDS011;2982;42.684;23.356;2023-05-09T08:19:54;0.60;;;0.60;;
5912;SDS011;2982;42.684;23.356;2023-05-09T08:22:19;1.40;;;0.52;;
5912;SDS011;2982;42.684;23.356;2023-05-09T08:24:45;2.33;;;0.50;;
5912;SDS011;2982;42.684;23.356;2023-05-09T08:27:11;1.73;;;0.90;;
5912;SDS011;2982;42.684;23.356;2023-05-09T08:29:37;0.82;;;0.60;;
5912;SDS011;2982;42.684;23.356;2023-05-09T08:32:02;0.50;;;0.50;;
5912;SDS011;2982;42.684;23.356;2023-05-09T08:34:28;0.52;;;0.52;;
5912;SDS011;2982;42.684;23.356;2023-05-09T08:36:53;0.60;;;0.60;;
5912;SDS011;2982;42.684;23.356;2023-05-09T08:39:18;0.57;;;0.57;;
5912;SDS011;2982;42.684;23.356;2023-05-09T08:41:44;1.65;;;0.60;;
5912;SDS011;2982;42.684;23.356;2023-05-09T08:44:10;1.05;;;0.80;;
5912;SDS011;2982;42.684;23.356;2023-05-09T08:46:36;1.35;;;1.25;;
5912;SDS011;2982;42.684;23.356;2023-05-09T08:49:06;4.60;;;1.27;;
5912;SDS011;2982;42.684;23.356;2023-05-09T08:51:31;2.47;;;0.88;;
5912;SDS011;2982;42.684;23.356;2023-05-09T08:53:57;1.55;;;0.90;;
5912;SDS011;2982;42.684;23.356;2023-05-09T08:56:23;1.23;;;0.80;;
5912;SDS011;2982;42.684;23.356;2023-05-09T08:58:48;0.50;;;0.50;;
5912;SDS011;2982;42.684;23.356;2023-05-09T09:01:14;0.82;;;0.70;;
5912;SDS011;2982;42.684;23.356;2023-05-09T09:03:41;1.25;;;0.85;;
5912;SDS011;2982;42.684;23.356;2023-05-09T09:06:07;0.75;;;0.57;;
5912;SDS011;2982;42.684;23.356;2023-05-09T09:08:33;2.10;;;0.80;;
5912;SDS011;2982;42.684;23.356;2023-05-09T09:10:59;3.13;;;0.88;;
5912;SDS011;2982;42.684;23.356;2023-05-09T09:13:25;1.75;;;0.68;;
5912;SDS011;2982;42.684;23.356;2023-05-09T09:15:52;0.50;;;0.50;;
5912;SDS011;2982;42.684;23.356;2023-05-09T09:18:20;0.40;;;0.40;;
5912;SDS011;2982;42.684;23.356;2023-05-09T09:20:47;0.85;;;0.85;;
5912;SDS011;2982;42.684;23.356;2023-05-09T09:23:17;0.50;;;0.50;;
5912;SDS011;2982;42.684;23.356;2023-05-09T09:25:46;1.23;;;0.60;;
5912;SDS011;2982;42.684;23.356;2023-05-09T09:28:12;0.57;;;0.57;;
5912;SDS011;2982;42.684;23.356;2023-05-09T09:30:42;0.50;;;0.50;;
5912;SDS011;2982;42.684;23.356;2023-05-09T09:33:19;1.35;;;0.63;;
5912;SDS011;2982;42.684;23.356;2023-05-09T09:35:46;1.08;;;1.00;;
5912;SDS011;2982;42.684;23.356;2023-05-09T09:38:12;2.15;;;1.00;;
5912;SDS011;2982;42.684;23.356;2023-05-09T09:40:37;0.82;;;0.82;;
5912;SDS011;2982;42.684;23.356;2023-05-09T09:43:02;1.50;;;0.90;;
5912;SDS011;2982;42.684;23.356;2023-05-09T09:45:30;1.05;;;0.88;;
5912;SDS011;2982;42.684;23.356;2023-05-09T09:47:56;1.17;;;0.70;;
5912;SDS011;2982;42.684;23.356;2023-05-09T09:50:21;0.70;;;0.70;;
5912;SDS011;2982;42.684;23.356;2023-05-09T09:52:53;0.80;;;0.80;;
5912;SDS011;2982;42.684;23.356;2023-05-09T09:55:20;1.05;;;0.82;;
5912;SDS011;2982;42.684;23.356;2023-05-09T09:57:46;0.50;;;0.50;;
5912;SDS011;2982;42.684;23.356;2023-05-09T10:00:13;1.15;;;0.60;;
5912;SDS011;2982;42.684;23.356;2023-05-09T10:02:55;1.30;;;0.70;;
5912;SDS011;2982;42.684;23.356;2023-05-09T10:05:26;3.20;;;0.70;;
5912;SDS011;2982;42.684;23.356;2023-05-09T10:07:59;1.92;;;0.80;;
5912;SDS011;2982;42.684;23.356;2023-05-09T10:10:26;0.95;;;0.70;;
5912;SDS011;2982;42.684;23.356;2023-05-09T10:12:55;1.02;;;0.93;;
5912;SDS011;2982;42.684;23.356;2023-05-09T10:15:21;0.80;;;0.80;;
5912;SDS011;2982;42.684;23.356;2023-05-09T10:17:48;3.63;;;1.35;;
5912;SDS011;2982;42.684;23.356;2023-05-09T10:20:18;1.50;;;1.40;;
5912;SDS011;2982;42.684;23.356;2023-05-09T10:22:43;1.10;;;1.10;;
5912;SDS011;2982;42.684;23.356;2023-05-09T10:25:13;0.60;;;0.60;;
5912;SDS011;2982;42.684;23.356;2023-05-09T10:27:43;2.08;;;1.20;;
5912;SDS011;2982;42.684;23.356;2023-05-09T10:30:23;1.67;;;0.70;;
5912;SDS011;2982;42.684;23.356;2023-05-09T10:33:01;2.08;;;0.98;;
5912;SDS011;2982;42.684;23.356;2023-05-09T10:35:49;1.67;;;0.93;;
5912;SDS011;2982;42.684;23.356;2023-05-09T10:38:14;1.13;;;1.02;;
5912;SDS011;2982;42.684;23.356;2023-05-09T10:40:40;4.43;;;0.90;;
5912;SDS011;2982;42.684;23.356;2023-05-09T10:43:05;3.03;;;1.10;;
5912;SDS011;2982;42.684;23.356;2023-05-09T10:45:30;1.15;;;1.13;;
5912;SDS011;2982;42.684;23.356;2023-05-09T10:47:56;0.98;;;0.88;;
5912;SDS011;2982;42.684;23.356;2023-05-09T10:50:23;1.45;;;1.35;;
5912;SDS011;2982;42.684;23.356;2023-05-09T10:55:34;1.70;;;1.10;;
5912;SDS011;2982;42.684;23.356;2023-05-09T11:00:44;2.55;;;1.40;;
5912;SDS011;2982;42.684;23.356;2023-05-09T11:03:10;1.23;;;1.17;;
5912;SDS011;2982;42.684;23.356;2023-05-09T11:05:39;1.27;;;1.17;;
5912;SDS011;2982;42.684;23.356;2023-05-09T11:08:26;2.47;;;1.40;;
5912;SDS011;2982;42.684;23.356;2023-05-09T11:10:51;1.45;;;1.35;;
5912;SDS011;2982;42.684;23.356;2023-05-09T11:13:18;1.88;;;1.77;;
5912;SDS011;2982;42.684;23.356;2023-05-09T11:18:24;1.80;;;1.70;;
5912;SDS011;2982;42.684;23.356;2023-05-09T11:20:50;1.80;;;1.70;;
5912;SDS011;2982;42.684;23.356;2023-05-09T11:23:18;1.50;;;1.40;;
5912;SDS011;2982;42.684;23.356;2023-05-09T11:25:45;3.65;;;3.33;;
5912;SDS011;2982;42.684;23.356;2023-05-09T11:28:11;2.10;;;1.90;;
5912;SDS011;2982;42.684;23.356;2023-05-09T11:30:50;1.73;;;1.63;;
5912;SDS011;2982;42.684;23.356;2023-05-09T11:33:22;1.25;;;1.25;;
5912;SDS011;2982;42.684;23.356;2023-05-09T11:38:43;1.50;;;1.40;;
5912;SDS011;2982;42.684;23.356;2023-05-09T11:41:09;2.78;;;1.55;;
5912;SDS011;2982;42.684;23.356;2023-05-09T11:43:35;1.95;;;1.85;;
5912;SDS011;2982;42.684;23.356;2023-05-09T11:46:02;3.92;;;2.30;;
5912;SDS011;2982;42.684;23.356;2023-05-09T11:48:28;2.22;;;2.13;;
5912;SDS011;2982;42.684;23.356;2023-05-09T11:50:53;1.70;;;1.60;;
5912;SDS011;2982;42.684;23.356;2023-05-09T11:53:18;1.83;;;1.73;;
5912;SDS011;2982;42.684;23.356;2023-05-09T11:55:44;2.40;;;1.90;;
5912;SDS011;2982;42.684;23.356;2023-05-09T11:58:10;1.70;;;1.60;;
5912;SDS011;2982;42.684;23.356;2023-05-09T12:00:35;2.83;;;2.50;;
5912;SDS011;2982;42.684;23.356;2023-05-09T12:03:08;2.10;;;2.00;;
5912;SDS011;2982;42.684;23.356;2023-05-09T12:05:34;2.35;;;2.15;;
5912;SDS011;2982;42.684;23.356;2023-05-09T12:08:04;4.03;;;3.72;;
5912;SDS011;2982;42.684;23.356;2023-05-09T12:10:30;2.33;;;2.22;;
5912;SDS011;2982;42.684;23.356;2023-05-09T12:12:55;1.88;;;1.77;;
5912;SDS011;2982;42.684;23.356;2023-05-09T12:15:21;2.08;;;1.80;;
5912;SDS011;2982;42.684;23.356;2023-05-09T12:17:46;2.63;;;2.53;;
5912;SDS011;2982;42.684;23.356;2023-05-09T12:20:24;2.78;;;2.65;;
5912;SDS011;2982;42.684;23.356;2023-05-09T12:22:51;2.42;;;2.28;;
5912;SDS011;2982;42.684;23.356;2023-05-09T12:25:17;2.78;;;2.58;;
5912;SDS011;2982;42.684;23.356;2023-05-09T12:27:42;2.10;;;2.00;;
5912;SDS011;2982;42.684;23.356;2023-05-09T12:30:08;2.28;;;2.03;;
5912;SDS011;2982;42.684;23.356;2023-05-09T12:32:33;2.80;;;1.77;;
5912;SDS011;2982;42.684;23.356;2023-05-09T12:35:00;2.28;;;1.90;;
5912;SDS011;2982;42.684;23.356;2023-05-09T12:37:25;2.70;;;2.60;;
5912;SDS011;2982;42.684;23.356;2023-05-09T12:40:00;2.80;;;2.65;;
5912;SDS011;2982;42.684;23.356;2023-05-09T12:42:27;2.30;;;2.10;;
5912;SDS011;2982;42.684;23.356;2023-05-09T12:44:52;2.10;;;2.00;;
5912;SDS011;2982;42.684;23.356;2023-05-09T12:47:18;2.58;;;2.47;;
5912;SDS011;2982;42.684;23.356;2023-05-09T12:49:44;2.90;;;2.70;;
5912;SDS011;2982;42.684;23.356;2023-05-09T12:52:16;1.50;;;1.40;;
5912;SDS011;2982;42.684;23.356;2023-05-09T12:54:44;5.22;;;2.72;;
5912;SDS011;2982;42.684;23.356;2023-05-09T12:57:18;2.50;;;2.33;;
5912;SDS011;2982;42.684;23.356;2023-05-09T12:59:47;2.22;;;2.13;;
5912;SDS011;2982;42.684;23.356;2023-05-09T13:02:13;4.45;;;2.40;;
5912;SDS011;2982;42.684;23.356;2023-05-09T13:04:38;2.00;;;1.90;;
5912;SDS011;2982;42.684;23.356;2023-05-09T13:07:07;3.60;;;2.45;;
5912;SDS011;2982;42.684;23.356;2023-05-09T13:09:33;2.30;;;2.10;;
5912;SDS011;2982;42.684;23.356;2023-05-09T13:11:58;4.45;;;1.70;;
5912;SDS011;2982;42.684;23.356;2023-05-09T13:14:24;1.98;;;1.80;;
5912;SDS011;2982;42.684;23.356;2023-05-09T13:16:50;2.25;;;1.98;;
5912;SDS011;2982;42.684;23.356;2023-05-09T13:19:15;3.85;;;2.75;;
5912;SDS011;2982;42.684;23.356;2023-05-09T13:21:40;2.20;;;2.10;;
5912;SDS011;2982;42.684;23.356;2023-05-09T13:24:06;9.60;;;2.90;;
5912;SDS011;2982;42.684;23.356;2023-05-09T13:26:31;4.72;;;2.20;;
5912;SDS011;2982;42.684;23.356;2023-05-09T13:28:57;3.10;;;2.45;;
5912;SDS011;2982;42.684;23.356;2023-05-09T13:31:22;2.65;;;2.45;;
5912;SDS011;2982;42.684;23.356;2023-05-09T13:33:48;2.50;;;2.35;;
5912;SDS011;2982;42.684;23.356;2023-05-09T13:36:13;3.03;;;2.83;;
5912;SDS011;2982;42.684;23.356;2023-05-09T13:38:39;3.05;;;2.85;;
5912;SDS011;2982;42.684;23.356;2023-05-09T13:41:07;3.35;;;3.10;;
5912;SDS011;2982;42.684;23.356;2023-05-09T13:43:33;2.20;;;2.10;;
5912;SDS011;2982;42.684;23.356;2023-05-09T13:45:59;2.90;;;2.70;;
5912;SDS011;2982;42.684;23.356;2023-05-09T13:48:24;2.78;;;2.55;;
5912;SDS011;2982;42.684;23.356;2023-05-09T13:50:50;3.30;;;1.95;;
5912;SDS011;2982;42.684;23.356;2023-05-09T13:53:15;2.20;;;2.10;;
5912;SDS011;2982;42.684;23.356;2023-05-09T13:55:41;1.90;;;1.80;;
5912;SDS011;2982;42.684;23.356;2023-05-09T13:58:06;4.53;;;2.15;;
5912;SDS011;2982;42.684;23.356;2023-05-09T14:00:32;2.72;;;2.10;;
5912;SDS011;2982;42.684;23.356;2023-05-09T14:02:57;3.05;;;1.77;;
5912;SDS011;2982;42.684;23.356;2023-05-09T14:05:22;2.03;;;1.92;;
5912;SDS011;2982;42.684;23.356;2023-05-09T14:07:48;1.90;;;1.80;;
5912;SDS011;2982;42.684;23.356;2023-05-09T14:10:13;1.95;;;1.75;;
5912;SDS011;2982;42.684;23.356;2023-05-09T14:12:39;2.20;;;2.10;;
5912;SDS011;2982;42.684;23.356;2023-05-09T14:15:05;2.85;;;2.00;;
5912;SDS011;2982;42.684;23.356;2023-05-09T14:17:31;1.92;;;1.80;;
5912;SDS011;2982;42.684;23.356;2023-05-09T14:19:57;2.08;;;1.98;;
5912;SDS011;2982;42.684;23.356;2023-05-09T14:22:22;1.40;;;1.30;;
5912;SDS011;2982;42.684;23.356;2023-05-09T14:24:47;1.65;;;1.48;;
5912;SDS011;2982;42.684;23.356;2023-05-09T14:27:12;1.75;;;1.65;;
5912;SDS011;2982;42.684;23.356;2023-05-09T14:29:38;1.40;;;1.30;;
5912;SDS011;2982;42.684;23.356;2023-05-09T14:32:03;1.05;;;1.05;;
5912;SDS011;2982;42.684;23.356;2023-05-09T14:34:28;1.50;;;1.40;;
5912;SDS011;2982;42.684;23.356;2023-05-09T14:36:54;1.10;;;1.00;;
5912;SDS011;2982;42.684;23.356;2023-05-09T14:39:19;1.13;;;1.08;;
5912;SDS011;2982;42.684;23.356;2023-05-09T14:41:44;3.40;;;1.20;;
5912;SDS011;2982;42.684;23.356;2023-05-09T14:44:09;4.43;;;1.33;;
5912;SDS011;2982;42.684;23.356;2023-05-09T14:46:35;2.95;;;2.60;;
5912;SDS011;2982;42.684;23.356;2023-05-09T14:49:00;0.70;;;0.70;;
5912;SDS011;2982;42.684;23.356;2023-05-09T14:51:25;0.70;;;0.70;;
5912;SDS011;2982;42.684;23.356;2023-05-09T14:53:50;2.85;;;1.02;;
5912;SDS011;2982;42.684;23.356;2023-05-09T14:56:16;0.80;;;0.77;;
5912;SDS011;2982;42.684;23.356;2023-05-09T14:58:41;2.05;;;1.02;;
5912;SDS011;2982;42.684;23.356;2023-05-09T15:01:06;4.43;;;1.17;;
5912;SDS011;2982;42.684;23.356;2023-05-09T15:03:31;1.70;;;1.60;;
5912;SDS011;2982;42.684;23.356;2023-05-09T15:05:57;1.15;;;1.15;;
5912;SDS011;2982;42.684;23.356;2023-05-09T15:08:22;1.00;;;0.90;;
5912;SDS011;2982;42.684;23.356;2023-05-09T15:10:48;1.35;;;1.25;;
5912;SDS011;2982;42.684;23.356;2023-05-09T15:13:13;1.77;;;0.82;;
5912;SDS011;2982;42.684;23.356;2023-05-09T15:15:38;0.63;;;0.63;;
5912;SDS011;2982;42.684;23.356;2023-05-09T15:18:04;1.00;;;0.88;;
5912;SDS011;2982;42.684;23.356;2023-05-09T15:20:29;0.75;;;0.75;;
5912;SDS011;2982;42.684;23.356;2023-05-09T15:22:54;1.05;;;0.95;;